Citronelle, AL (36522)

6:20 PM CST on February 07, 2016 (GMT -0600)
York Hill Gulfcrest, Alabama | | Change Station
CLOSE
Current Station
Personal Weather Station
Location: Chunchula, AL
Elevation: 190 ft
Nearby Weather Stations
Active Advisory: Wind Advisory

Elev 190 ft 30.99 °N, 88.24 °W | Updated 7 minutes ago

Clear
Clear
48.0 °F
Feels Like 48 °F
N
0.0
Wind Variable Wind from SSW

Today
High -- | Low -- °F
--% Chance of Precip.
Yesterday
High -- | Low -- °F
Precip. -- in
Pressure 30.12 in
Visibility 10.0 miles
Clouds Clear
Windchill 48 °F
Dew Point 35 °F
Humidity 60%
Rainfall 0.00 in
Snow Depth Not available.
6:41 AM 5:33 PM
Waning Crescent, 1% visible
METAR KMOB 072356Z 24006KT 10SM CLR 11/M02 A3012 RMK AO2 SLP199 T01061017 10156 20106 53004
Pressure 30.12 in
Visibility 10.0 miles
Clouds Clear
Windchill 48 °F
Dew Point 35 °F
Humidity 60%
Rainfall 0.00 in
Snow Depth Not available.
6:41 AM 5:33 PM
Waning Crescent, 1% visible
METAR KMOB 072356Z 24006KT 10SM CLR 11/M02 A3012 RMK AO2 SLP199 T01061017 10156 20106 53004

10-Day Weather Forecast

Almanac

Astronomy

Feb. 07, 2016 Rise Set
Actual Time
Civil Twilight
Nautical Twilight
Astronomical Twilight
Moon
Length of Visible Light
Length of Day
Tomorrow will be .
, % of the Moon is Illuminated

Today's Extremes

State Highs State Lows

Community

WunderPhotos

Upload Photos

1,891,334 photos uploaded!

WunderBlog® & News

Nearby

Air Quality

  Air Quality AQ Index Pollutant
Not available.

Snow Depth

Station Depth Elevation

Earthquake Activity

City Distance Mag. Time & Date
Minimum magnitude displayed is 2.5.

Coastal Water Temperatures

Place Temperature

Stations

Nearby Weather Stations

Station Location Temp. Windchill Dew Point Humidity Wind Precip. Elev Updated Type
                   

Watches & Warnings

Wind Advisory
Issued: 2:49 PM CST Feb. 7, 2016 – National Weather Service

... Wind Advisory in effect from noon to 6 PM CST Monday...

The National Weather Service in Mobile has issued a Wind
Advisory... which is in effect from noon to 6 PM CST Monday.

* Timing... Monday afternoon.

* Winds... northwest and increasing to 20 to 25 mph with frequent
higher gusts in excess of 30 mph.

Precautionary/preparedness actions...

A Wind Advisory means that winds of 30 to 39 mph are expected.
Winds this strong can make driving difficult...
especially for high profile vehicles. Use extra caution.